createdAt,value
2022-12-15T00:00:01.910Z,85.42
2022-12-15T00:02:51.585Z,83.78
2022-12-15T00:05:37.383Z,83.53
2022-12-15T00:08:26.719Z,83.55
2022-12-15T00:11:12.388Z,83.38
2022-12-15T00:13:57.901Z,83.88
2022-12-15T00:16:43.977Z,83.73
2022-12-15T00:19:30.751Z,83.25
2022-12-15T00:22:16.335Z,83.06
2022-12-15T00:25:01.809Z,83.40
2022-12-15T00:27:47.992Z,82.85
2022-12-15T00:30:33.493Z,82.68
2022-12-15T00:33:19.960Z,82.91
2022-12-15T00:36:06.721Z,81.81
2022-12-15T00:38:44.380Z,82.94
2022-12-15T00:41:13.454Z,82.60
2022-12-15T00:43:41.181Z,81.92
2022-12-15T00:46:28.365Z,82.44
2022-12-15T00:48:56.542Z,83.13
2022-12-15T00:51:44.111Z,82.96
2022-12-15T00:54:29.527Z,83.61
2022-12-15T00:57:15.179Z,83.53
2022-12-15T01:00:00.691Z,82.56
2022-12-15T01:02:46.711Z,83.82
2022-12-15T01:05:32.452Z,83.29
2022-12-15T01:08:19.301Z,83.99
2022-12-15T01:11:04.970Z,83.38
2022-12-15T01:13:50.565Z,83.97
2022-12-15T01:16:36.393Z,84.37
2022-12-15T01:19:22.110Z,84.31
2022-12-15T01:21:49.873Z,83.99
2022-12-15T01:24:18.984Z,84.05
2022-12-15T01:26:46.873Z,83.77
2022-12-15T01:29:14.543Z,84.67
2022-12-15T01:31:43.711Z,84.60
2022-12-15T01:34:11.413Z,84.55
2022-12-15T01:36:39.055Z,84.57
2022-12-15T01:39:07.414Z,84.48
2022-12-15T01:41:35.417Z,84.44
2022-12-15T01:44:17.326Z,84.24
2022-12-15T01:46:45.380Z,84.94
2022-12-15T01:49:16.511Z,84.65
2022-12-15T01:51:48.044Z,84.69
2022-12-15T01:54:20.428Z,84.20
2022-12-15T01:56:53.662Z,84.57
2022-12-15T01:59:27.693Z,83.90
2022-12-15T02:01:55.396Z,84.09
2022-12-15T02:04:25.172Z,83.78
2022-12-15T02:06:53.080Z,83.68
2022-12-15T02:09:24.059Z,83.82
2022-12-15T02:12:03.148Z,83.65
2022-12-15T02:14:51.719Z,83.75
2022-12-15T02:17:32.591Z,83.68
2022-12-15T02:20:41.137Z,83.91
2022-12-15T02:23:33.814Z,83.70
2022-12-15T02:26:18.713Z,83.23
2022-12-15T02:28:58.605Z,83.84
2022-12-15T02:31:49.949Z,83.37
2022-12-15T02:34:26.621Z,83.44
2022-12-15T02:36:58.634Z,84.04
2022-12-15T02:39:27.576Z,83.81
2022-12-15T02:41:55.365Z,82.97
2022-12-15T02:44:27.647Z,83.51
2022-12-15T02:47:18.873Z,82.71
2022-12-15T02:50:00.701Z,83.13
2022-12-15T02:52:42.087Z,83.34
2022-12-15T02:55:17.415Z,83.45
2022-12-15T02:57:54.327Z,83.38
2022-12-15T03:00:22.693Z,83.65
2022-12-15T03:02:54.282Z,83.94
2022-12-15T03:05:24.036Z,83.42
2022-12-15T03:07:52.797Z,84.20
2022-12-15T03:10:23.377Z,83.82
2022-12-15T03:12:51.559Z,83.64
2022-12-15T03:15:20.137Z,83.62
2022-12-15T03:17:48.288Z,83.57
2022-12-15T03:20:17.471Z,83.21
2022-12-15T03:22:45.357Z,83.07
2022-12-15T03:25:13.750Z,82.69
2022-12-15T03:27:41.402Z,82.60
2022-12-15T03:30:10.386Z,82.93
2022-12-15T03:32:38.012Z,82.43
2022-12-15T03:35:06.832Z,82.78
2022-12-15T03:37:35.831Z,82.38
2022-12-15T03:40:03.588Z,82.36
2022-12-15T03:42:49.866Z,83.03
2022-12-15T03:45:19.305Z,82.44
2022-12-15T03:47:47.445Z,82.29
2022-12-15T03:50:18.173Z,82.54
2022-12-15T03:52:51.364Z,82.32
2022-12-15T03:55:20.170Z,82.24
2022-12-15T03:57:48.032Z,82.04
2022-12-15T04:00:18.489Z,82.11
2022-12-15T04:02:46.911Z,81.67
2022-12-15T04:05:20.489Z,81.80
2022-12-15T04:07:49.494Z,82.19
2022-12-15T04:10:17.154Z,81.53
2022-12-15T04:12:44.820Z,81.68
2022-12-15T04:15:12.758Z,81.44
2022-12-15T04:17:40.467Z,81.76
2022-12-15T04:20:12.375Z,80.97
2022-12-15T04:22:42.206Z,81.96
2022-12-15T04:25:32.396Z,81.80
2022-12-15T04:28:18.151Z,81.15
2022-12-15T04:31:08.145Z,81.88
2022-12-15T04:33:54.061Z,81.51
2022-12-15T04:36:40.284Z,81.78
2022-12-15T04:39:25.523Z,81.78
2022-12-15T04:42:15.907Z,82.22
2022-12-15T04:45:01.705Z,82.50
2022-12-15T04:47:47.684Z,82.43
2022-12-15T04:50:33.122Z,82.07
2022-12-15T04:53:26.676Z,82.12
2022-12-15T04:56:17.999Z,82.22
2022-12-15T04:59:05.978Z,81.88
2022-12-15T05:01:52.314Z,81.89
2022-12-15T05:04:38.330Z,81.68
2022-12-15T05:07:23.793Z,81.84
2022-12-15T05:10:14.736Z,82.05
2022-12-15T05:13:00.326Z,82.36
2022-12-15T05:15:48.372Z,81.78
2022-12-15T05:18:33.679Z,81.61
2022-12-15T05:21:19.999Z,82.55
2022-12-15T05:24:06.291Z,82.64
2022-12-15T05:26:53.191Z,82.51
2022-12-15T05:29:38.910Z,82.39
2022-12-15T05:32:08.803Z,82.50
2022-12-15T05:34:37.396Z,82.36
2022-12-15T05:37:06.965Z,81.61
2022-12-15T05:39:34.717Z,82.72
2022-12-15T05:42:03.073Z,82.29
2022-12-15T05:44:30.740Z,82.58
2022-12-15T05:46:59.089Z,82.57
2022-12-15T05:49:28.104Z,82.77
2022-12-15T05:51:57.200Z,82.07
2022-12-15T05:54:24.947Z,82.53
2022-12-15T05:56:53.185Z,82.45
2022-12-15T05:59:21.362Z,82.05
2022-12-15T06:01:49.616Z,82.79
2022-12-15T06:04:17.355Z,81.75
2022-12-15T06:06:47.018Z,82.01
2022-12-15T06:09:14.755Z,81.63
2022-12-15T06:11:42.761Z,81.65
2022-12-15T06:14:11.026Z,81.72
2022-12-15T06:16:50.497Z,80.87
2022-12-15T06:19:19.303Z,81.83
2022-12-15T06:21:49.285Z,81.04
2022-12-15T06:24:16.964Z,80.99
2022-12-15T06:26:45.552Z,81.60
2022-12-15T06:29:14.343Z,82.29
2022-12-15T06:31:44.010Z,82.46
2022-12-15T06:34:16.192Z,81.97
2022-12-15T06:36:44.669Z,81.98
2022-12-15T06:39:15.580Z,82.07
2022-12-15T06:41:44.654Z,81.64
2022-12-15T06:44:15.453Z,81.67
2022-12-15T06:46:44.685Z,82.68
2022-12-15T06:49:12.929Z,82.03
2022-12-15T06:51:41.711Z,82.26
2022-12-15T06:54:11.088Z,82.06
2022-12-15T06:56:41.100Z,82.96
2022-12-15T06:59:09.441Z,82.78
2022-12-15T07:01:39.040Z,82.74
2022-12-15T07:04:06.929Z,83.06
2022-12-15T07:06:37.800Z,83.33
2022-12-15T07:09:08.184Z,83.22
2022-12-15T07:11:36.713Z,83.29
2022-12-15T07:14:05.884Z,83.20
2022-12-15T07:16:34.534Z,82.52
2022-12-15T07:19:02.429Z,83.24
2022-12-15T07:21:31.063Z,82.28
2022-12-15T07:23:59.644Z,82.36
2022-12-15T07:26:28.467Z,83.16
2022-12-15T07:28:56.339Z,82.77
2022-12-15T07:31:25.585Z,82.74
2022-12-15T07:33:54.614Z,83.26
2022-12-15T07:36:22.643Z,82.82
2022-12-15T07:38:51.421Z,82.94
2022-12-15T07:41:20.275Z,82.76
2022-12-15T07:43:48.409Z,83.75
2022-12-15T07:46:16.573Z,82.71
2022-12-15T07:48:50.686Z,83.00
2022-12-15T07:51:21.023Z,82.53
2022-12-15T07:53:51.161Z,82.11
2022-12-15T07:56:20.221Z,82.26
2022-12-15T07:58:48.235Z,81.80
2022-12-15T08:01:16.771Z,82.46
2022-12-15T08:03:46.123Z,82.50
2022-12-15T08:06:15.526Z,82.75
2022-12-15T08:08:50.314Z,82.81
2022-12-15T08:11:20.834Z,82.66
2022-12-15T08:14:06.991Z,82.72
2022-12-15T08:16:37.323Z,81.90
2022-12-15T08:19:07.222Z,80.18
2022-12-15T08:21:35.053Z,80.73
2022-12-15T08:24:02.966Z,80.18
2022-12-15T08:26:31.517Z,81.30
2022-12-15T08:29:31.958Z,81.23
2022-12-15T08:31:52.257Z,81.12
2022-12-15T08:34:22.223Z,80.48
2022-12-15T08:36:50.137Z,80.46
2022-12-15T08:39:18.494Z,80.33
2022-12-15T08:41:46.179Z,80.27
2022-12-15T08:44:16.667Z,80.33
2022-12-15T08:46:44.301Z,79.95
2022-12-15T08:49:15.361Z,79.59
2022-12-15T08:51:50.141Z,79.54
2022-12-15T08:54:19.198Z,79.75
2022-12-15T08:56:46.881Z,79.17
2022-12-15T08:59:15.318Z,79.23
2022-12-15T09:01:43.408Z,78.58
2022-12-15T09:04:11.967Z,79.31
2022-12-15T09:06:39.862Z,78.22
2022-12-15T09:09:11.990Z,78.91
2022-12-15T09:11:39.622Z,78.25
2022-12-15T09:14:08.095Z,78.97
2022-12-15T09:16:35.939Z,78.46
2022-12-15T09:19:04.361Z,78.61
2022-12-15T09:21:32.242Z,78.13
2022-12-15T09:24:02.618Z,78.17
2022-12-15T09:26:33.602Z,78.30
2022-12-15T09:29:02.766Z,78.74
2022-12-15T09:31:32.521Z,78.42
2022-12-15T09:34:02.009Z,78.36
2022-12-15T09:36:32.351Z,78.32
2022-12-15T09:39:02.114Z,77.55
2022-12-15T09:41:33.388Z,78.10
2022-12-15T09:44:03.958Z,77.48
2022-12-15T09:46:50.251Z,78.00
2022-12-15T09:49:31.902Z,77.36
2022-12-15T09:52:10.357Z,76.88
2022-12-15T09:54:41.630Z,75.88
2022-12-15T09:57:19.200Z,77.06
2022-12-15T10:00:03.593Z,76.72
2022-12-15T10:03:01.017Z,75.94
2022-12-15T10:06:06.935Z,75.48
2022-12-15T10:08:31.961Z,75.80
2022-12-15T10:11:02.248Z,75.55
2022-12-15T10:13:39.780Z,76.24
2022-12-15T10:16:19.670Z,76.06
2022-12-15T10:19:01.204Z,75.62
2022-12-15T10:21:31.815Z,76.00
2022-12-15T10:24:14.247Z,76.16
2022-12-15T10:26:43.613Z,75.76
2022-12-15T10:29:24.863Z,75.88
2022-12-15T10:31:58.006Z,76.36
2022-12-15T10:34:29.336Z,76.31
2022-12-15T10:36:58.404Z,75.82
2022-12-15T10:39:39.219Z,76.59
2022-12-15T10:42:20.878Z,75.72
2022-12-15T10:44:52.231Z,75.54
2022-12-15T10:47:24.128Z,76.10
2022-12-15T10:49:53.221Z,75.33
2022-12-15T10:52:27.317Z,75.72
2022-12-15T10:54:57.118Z,75.17
2022-12-15T10:57:41.137Z,74.76
2022-12-15T11:00:29.612Z,74.28
2022-12-15T11:02:58.436Z,74.49
2022-12-15T11:05:27.840Z,74.79
2022-12-15T11:07:57.659Z,74.34
2022-12-15T11:10:27.868Z,75.46
2022-12-15T11:12:59.600Z,74.98
2022-12-15T11:15:47.179Z,74.87
2022-12-15T11:18:36.637Z,74.61
2022-12-15T11:21:08.695Z,74.78
2022-12-15T11:23:51.162Z,75.20
2022-12-15T11:26:31.887Z,75.18
2022-12-15T11:29:02.558Z,75.16
2022-12-15T11:31:38.239Z,75.44
2022-12-15T11:34:13.410Z,74.58
2022-12-15T11:36:55.106Z,75.05
2022-12-15T11:39:34.841Z,75.40
2022-12-15T11:42:11.138Z,75.11
2022-12-15T11:44:49.039Z,74.88
2022-12-15T11:47:27.682Z,75.43
2022-12-15T11:50:10.204Z,74.80
2022-12-15T11:52:52.471Z,75.78
2022-12-15T11:58:30.384Z,73.89
2022-12-15T12:01:07.761Z,74.73
2022-12-15T12:03:49.372Z,74.59
2022-12-15T12:06:25.288Z,74.68
2022-12-15T12:09:19.064Z,75.54
2022-12-15T12:11:55.159Z,75.76
2022-12-15T12:14:36.352Z,74.79
2022-12-15T12:17:09.345Z,75.51
2022-12-15T12:19:43.593Z,75.13
2022-12-15T12:22:17.539Z,75.52
2022-12-15T12:24:51.263Z,76.01
2022-12-15T12:27:29.933Z,75.99
2022-12-15T12:30:03.256Z,76.59
2022-12-15T12:32:41.528Z,76.43
2022-12-15T12:35:31.460Z,77.25
2022-12-15T12:41:01.409Z,77.13
2022-12-15T12:43:34.524Z,76.95
2022-12-15T12:46:10.394Z,76.94
2022-12-15T12:48:42.628Z,76.83
2022-12-15T12:51:21.249Z,76.97
2022-12-15T12:53:48.967Z,76.52
2022-12-15T12:56:34.512Z,77.49
2022-12-15T12:59:07.748Z,77.17
2022-12-15T13:01:36.971Z,77.36
2022-12-15T13:04:11.300Z,77.07
2022-12-15T13:07:07.714Z,77.28
2022-12-15T13:09:41.520Z,76.85
2022-12-15T13:12:53.950Z,77.82
2022-12-15T13:15:37.267Z,77.33
2022-12-15T13:18:12.948Z,77.39
2022-12-15T13:20:41.493Z,78.31
2022-12-15T13:23:37.556Z,78.40
2022-12-15T13:26:23.762Z,77.69
2022-12-15T13:28:58.045Z,78.14
2022-12-15T13:31:39.842Z,78.18
2022-12-15T13:34:27.145Z,77.85
2022-12-15T13:37:02.866Z,79.04
2022-12-15T13:39:59.137Z,78.67
2022-12-15T13:42:48.546Z,78.79
2022-12-15T13:45:43.004Z,78.71
2022-12-15T13:48:21.834Z,78.94
2022-12-15T13:50:56.832Z,79.22
2022-12-15T13:53:27.900Z,79.14
2022-12-15T13:56:05.154Z,79.24
2022-12-15T13:58:39.533Z,78.86
2022-12-15T14:01:20.597Z,79.00
2022-12-15T14:04:06.724Z,78.71
2022-12-15T14:06:40.980Z,79.67
2022-12-15T14:09:14.931Z,79.61
2022-12-15T14:11:53.150Z,79.13
2022-12-15T14:14:26.000Z,80.15
2022-12-15T14:16:58.657Z,79.59
2022-12-15T14:19:27.024Z,79.76
2022-12-15T14:21:56.436Z,80.09
2022-12-15T14:24:39.594Z,80.17
2022-12-15T14:27:09.877Z,80.52
2022-12-15T14:29:37.900Z,80.53
2022-12-15T14:32:06.497Z,79.97
2022-12-15T14:34:41.483Z,81.35
2022-12-15T14:37:14.162Z,80.85
2022-12-15T14:39:45.279Z,81.21
2022-12-15T14:42:23.187Z,80.96
2022-12-15T14:44:57.852Z,81.28
2022-12-15T14:47:28.360Z,81.02
2022-12-15T14:49:59.342Z,82.20
2022-12-15T14:52:30.695Z,81.30
2022-12-15T14:55:01.151Z,81.68
2022-12-15T14:57:41.953Z,81.90
2022-12-15T15:00:25.660Z,82.35
2022-12-15T15:03:05.024Z,76.75
2022-12-15T15:03:06.970Z,75.24
2022-12-15T15:05:50.982Z,82.27
2022-12-15T15:08:26.860Z,81.93
2022-12-15T15:10:56.146Z,81.81
2022-12-15T15:13:35.974Z,82.07
2022-12-15T15:16:13.961Z,82.17
2022-12-15T15:18:43.721Z,82.19
2022-12-15T15:21:17.887Z,82.04
2022-12-15T15:23:59.335Z,82.45
2022-12-15T15:26:27.736Z,81.93
2022-12-15T15:28:56.997Z,82.78
2022-12-15T15:31:38.355Z,82.33
2022-12-15T15:34:08.121Z,82.02
2022-12-15T15:36:37.991Z,82.00
2022-12-15T15:39:13.060Z,82.82
2022-12-15T15:41:40.740Z,82.18
2022-12-15T15:44:14.921Z,82.49
2022-12-15T15:46:47.496Z,81.96
2022-12-15T15:49:17.725Z,82.20
2022-12-15T15:51:45.616Z,82.46
2022-12-15T15:54:16.120Z,82.97
2022-12-15T15:56:44.107Z,82.44
2022-12-15T15:59:15.105Z,82.64
2022-12-15T16:01:43.142Z,83.16
2022-12-15T16:04:12.484Z,83.09
2022-12-15T16:06:46.747Z,83.33
2022-12-15T16:09:16.734Z,82.95
2022-12-15T16:11:45.938Z,83.54
2022-12-15T16:14:17.582Z,82.80
2022-12-15T16:16:45.687Z,83.16
2022-12-15T16:19:14.109Z,83.09
2022-12-15T16:21:43.352Z,83.48
2022-12-15T16:24:16.174Z,84.00
2022-12-15T16:26:48.103Z,83.09
2022-12-15T16:29:18.814Z,83.17
2022-12-15T16:31:46.890Z,83.78
2022-12-15T16:34:16.397Z,83.83
2022-12-15T16:36:45.141Z,83.73
2022-12-15T16:39:25.689Z,83.17
2022-12-15T16:41:55.329Z,83.17
2022-12-15T16:44:26.064Z,83.45
2022-12-15T16:46:54.164Z,83.09
2022-12-15T16:49:22.436Z,83.03
2022-12-15T16:51:53.267Z,83.36
2022-12-15T16:54:25.529Z,83.64
2022-12-15T16:56:54.096Z,83.52
2022-12-15T16:59:34.968Z,83.76
2022-12-15T17:02:04.079Z,84.16
2022-12-15T17:04:31.990Z,84.05
2022-12-15T17:06:59.718Z,83.38
2022-12-15T17:09:28.207Z,83.62
2022-12-15T17:11:56.342Z,83.77
2022-12-15T17:14:25.712Z,84.41
2022-12-15T17:16:55.506Z,83.65
2022-12-15T17:19:23.131Z,83.59
2022-12-15T17:21:53.863Z,83.71
2022-12-15T17:24:22.560Z,83.74
2022-12-15T17:26:51.735Z,83.54
2022-12-15T17:29:22.185Z,83.70
2022-12-15T17:31:52.449Z,84.60
2022-12-15T17:34:31.639Z,84.22
2022-12-15T17:37:02.508Z,84.01
2022-12-15T17:39:30.758Z,84.08
2022-12-15T17:42:00.996Z,83.40
2022-12-15T17:44:33.643Z,83.31
2022-12-15T17:47:05.855Z,83.79
2022-12-15T17:49:36.586Z,84.44
2022-12-15T17:52:09.400Z,84.16
2022-12-15T17:54:37.239Z,83.69
2022-12-15T17:57:04.909Z,84.15
2022-12-15T17:59:32.628Z,84.25
2022-12-15T18:02:01.008Z,83.87
2022-12-15T18:04:30.105Z,84.58
2022-12-15T18:07:02.162Z,83.89
2022-12-15T18:09:30.758Z,83.89
2022-12-15T18:11:59.340Z,84.42
2022-12-15T18:14:28.603Z,85.02
2022-12-15T18:17:07.722Z,84.79
2022-12-15T18:19:36.728Z,85.03
2022-12-15T18:22:04.398Z,84.41
2022-12-15T18:24:32.085Z,84.88
2022-12-15T18:27:00.898Z,85.78
2022-12-15T18:29:28.533Z,85.46
2022-12-15T18:31:56.878Z,85.79
2022-12-15T18:34:24.551Z,84.92
2022-12-15T18:36:54.144Z,86.13
2022-12-15T18:39:24.168Z,85.25
2022-12-15T18:41:54.963Z,86.26
2022-12-15T18:44:24.873Z,86.09
2022-12-15T18:46:55.067Z,85.14
2022-12-15T18:49:23.622Z,84.77
2022-12-15T18:51:52.080Z,85.80
2022-12-15T18:54:23.725Z,85.59
2022-12-15T18:56:52.796Z,86.02
2022-12-15T18:59:22.576Z,85.29
2022-12-15T19:01:50.766Z,86.50
2022-12-15T19:04:18.490Z,86.06
2022-12-15T19:06:47.118Z,85.14
2022-12-15T19:09:18.427Z,85.54
2022-12-15T19:12:17.832Z,85.90
2022-12-15T19:14:47.069Z,86.17
2022-12-15T19:17:35.118Z,86.04
2022-12-15T19:20:21.497Z,85.88
2022-12-15T19:22:50.284Z,85.93
2022-12-15T19:25:25.547Z,86.64
2022-12-15T19:27:59.418Z,86.13
2022-12-15T19:30:28.914Z,86.00
2022-12-15T19:32:57.380Z,86.24
2022-12-15T19:35:25.224Z,86.10
2022-12-15T19:37:55.382Z,86.32
2022-12-15T19:40:27.330Z,85.69
2022-12-15T19:42:57.051Z,86.80
2022-12-15T19:45:27.061Z,86.67
2022-12-15T19:47:55.435Z,86.23
2022-12-15T19:50:25.964Z,87.20
2022-12-15T19:52:57.864Z,87.35
2022-12-15T19:55:28.621Z,87.16
2022-12-15T19:57:57.966Z,87.09
2022-12-15T20:00:27.295Z,86.75
2022-12-15T20:02:57.019Z,87.35
2022-12-15T20:05:26.053Z,87.61
2022-12-15T20:07:55.036Z,88.24
2022-12-15T20:10:31.408Z,88.47
2022-12-15T20:13:03.545Z,88.36
2022-12-15T20:15:31.199Z,88.36
2022-12-15T20:17:58.822Z,87.95
2022-12-15T20:20:28.842Z,88.51
2022-12-15T20:23:00.283Z,88.59
2022-12-15T20:25:30.480Z,88.64
2022-12-15T20:28:00.513Z,88.51
2022-12-15T20:30:32.688Z,88.88
2022-12-15T20:33:00.954Z,88.74
2022-12-15T20:35:31.048Z,88.65
2022-12-15T20:37:59.122Z,88.57
2022-12-15T20:40:28.698Z,88.14
2022-12-15T20:42:58.033Z,88.78
2022-12-15T20:45:27.807Z,88.52
2022-12-15T20:47:57.472Z,88.59
2022-12-15T20:50:28.856Z,88.67
2022-12-15T20:52:56.887Z,88.64
2022-12-15T20:55:24.672Z,88.83
2022-12-15T20:57:52.626Z,88.64
2022-12-15T21:00:21.789Z,89.12
2022-12-15T21:02:51.971Z,88.25
2022-12-15T21:05:25.490Z,88.76
2022-12-15T21:07:54.019Z,88.49
2022-12-15T21:10:22.062Z,87.79
2022-12-15T21:12:50.771Z,87.64
2022-12-15T21:15:21.722Z,87.57
2022-12-15T21:18:03.845Z,87.96
2022-12-15T21:20:41.197Z,87.46
2022-12-15T21:23:19.920Z,88.83
2022-12-15T21:25:48.229Z,87.80
2022-12-15T21:28:16.891Z,87.82
2022-12-15T21:30:45.041Z,87.49
2022-12-15T21:33:13.289Z,88.00
2022-12-15T21:35:46.020Z,88.11
2022-12-15T21:38:28.384Z,88.23
2022-12-15T21:40:59.809Z,88.49
2022-12-15T21:43:30.403Z,88.46
2022-12-15T21:45:58.956Z,87.72
2022-12-15T21:48:44.709Z,87.59
2022-12-15T21:51:16.430Z,88.04
2022-12-15T21:53:46.691Z,87.35
2022-12-15T21:56:16.397Z,86.98
2022-12-15T21:58:45.106Z,87.51
2022-12-15T22:01:15.424Z,87.08
2022-12-15T22:03:45.865Z,86.81
2022-12-15T22:06:20.084Z,87.37
2022-12-15T22:08:49.121Z,87.17
2022-12-15T22:11:22.105Z,86.86
2022-12-15T22:13:51.608Z,87.69
2022-12-15T22:16:20.310Z,87.23
2022-12-15T22:18:50.911Z,86.87
2022-12-15T22:21:21.222Z,86.27
2022-12-15T22:23:48.970Z,86.87
2022-12-15T22:26:22.139Z,86.62
2022-12-15T22:28:50.489Z,86.62
2022-12-15T22:31:18.981Z,87.16
2022-12-15T22:33:46.813Z,86.61
2022-12-15T22:36:15.141Z,87.72
2022-12-15T22:38:45.033Z,86.73
2022-12-15T22:41:19.276Z,87.31
2022-12-15T22:43:51.167Z,86.77
2022-12-15T22:46:22.212Z,87.10
2022-12-15T22:48:51.503Z,86.94
2022-12-15T22:51:20.561Z,86.83
2022-12-15T22:53:49.570Z,87.34
2022-12-15T22:56:26.671Z,87.20
2022-12-15T22:58:57.199Z,86.82
2022-12-15T23:01:27.116Z,86.92
2022-12-15T23:03:55.558Z,87.04
2022-12-15T23:06:24.103Z,87.04
2022-12-15T23:08:55.977Z,87.32
2022-12-15T23:11:39.680Z,86.95
2022-12-15T23:14:09.407Z,87.31
2022-12-15T23:16:37.152Z,87.89
2022-12-15T23:19:07.688Z,87.99
2022-12-15T23:21:37.067Z,88.28
2022-12-15T23:24:06.588Z,87.60
2022-12-15T23:26:34.560Z,87.57
2022-12-15T23:29:02.306Z,88.52
2022-12-15T23:31:30.550Z,87.85
2022-12-15T23:33:58.295Z,88.01
2022-12-15T23:36:26.030Z,88.09
2022-12-15T23:38:55.089Z,88.15
2022-12-15T23:41:24.633Z,87.93
2022-12-15T23:43:52.264Z,87.79
2022-12-15T23:46:20.063Z,87.77
2022-12-15T23:48:48.015Z,87.57
2022-12-15T23:51:17.875Z,87.66
2022-12-15T23:53:47.626Z,87.48
2022-12-15T23:56:18.236Z,88.32
2022-12-15T23:58:49.003Z,87.49
